Time;durP1;ratioP1;P1;durP2;ratioP2;P2;SDS_P1;SDS_P2;PMS_P1;PMS_P2;Temp;Humidity;BMP_temperature;BMP_pressure;BME280_temperature;BME280_humidity;BME280_pressure;Samples;Min_cycle;Max_cycle;Signal;HPM_P1;HPM_P2
2023/08/13 00:00:59;;;;;;;3.20;1.90;;;;;;;20.23;55.90;94373.28;5026805;28;20096;-80
2023/08/13 00:03:24;;;;;;;4.32;2.30;;;;;;;20.19;55.73;94367.03;5026820;28;20215;-80
2023/08/13 00:05:50;;;;;;;4.15;2.28;;;;;;;20.20;56.85;94379.41;5025492;28;20021;-79
2023/08/13 00:08:15;;;;;;;7.55;2.42;;;;;;;20.21;57.28;94370.16;5025460;28;20022;-79
2023/08/13 00:10:41;;;;;;;8.43;2.65;;;;;;;20.21;57.31;94375.56;5026686;28;20042;-79
2023/08/13 00:13:06;;;;;;;4.55;1.67;;;;;;;20.14;57.26;94364.63;5026488;28;20189;-79
2023/08/13 00:15:32;;;;;;;9.82;2.22;;;;;;;20.17;57.48;94366.63;5026624;28;20014;-79
2023/08/13 00:17:57;;;;;;;9.35;2.85;;;;;;;20.18;57.23;94368.16;5026540;28;20072;-79
2023/08/13 00:20:22;;;;;;;5.85;2.55;;;;;;;20.17;57.40;94376.63;5026444;28;20063;-79
2023/08/13 00:22:48;;;;;;;7.20;2.45;;;;;;;20.12;57.64;94377.72;5026400;28;20022;-79
2023/08/13 00:25:13;;;;;;;4.85;1.90;;;;;;;20.11;58.05;94370.78;5025341;28;20026;-79
2023/08/13 00:27:39;;;;;;;5.15;2.60;;;;;;;20.10;58.18;94376.53;5026233;28;20025;-80
2023/08/13 00:30:05;;;;;;;13.35;3.15;;;;;;;20.04;57.28;94384.16;5026359;28;20030;-80
2023/08/13 00:32:31;;;;;;;7.38;2.75;;;;;;;20.01;57.29;94382.19;5024938;28;20237;-79
2023/08/13 00:34:56;;;;;;;7.20;2.47;;;;;;;19.99;57.50;94374.44;5026136;28;20045;-80
2023/08/13 00:37:22;;;;;;;11.40;3.60;;;;;;;19.99;58.07;94369.03;5025043;28;20040;-79
2023/08/13 00:39:47;;;;;;;5.50;1.95;;;;;;;19.96;57.86;94374.38;5024866;28;20033;-80
2023/08/13 00:42:13;;;;;;;9.10;2.78;;;;;;;19.83;57.51;94374.53;5026191;28;20028;-80
2023/08/13 00:44:38;;;;;;;6.85;2.33;;;;;;;19.86;57.65;94377.66;5026094;28;20049;-80
2023/08/13 00:47:04;;;;;;;5.68;2.35;;;;;;;19.79;57.63;94381.81;5026095;28;20042;-80
2023/08/13 00:49:30;;;;;;;4.80;2.83;;;;;;;19.79;58.39;94376.41;5025958;28;20028;-79
2023/08/13 00:51:56;;;;;;;7.70;2.67;;;;;;;19.75;58.80;94372.06;5025888;28;20022;-79
2023/08/13 00:54:21;;;;;;;4.03;2.50;;;;;;;19.70;59.91;94375.81;5025753;28;20021;-79
2023/08/13 00:56:50;;;;;;;4.97;2.70;;;;;;;19.62;60.39;94369.50;5025810;28;20120;-79
2023/08/13 00:59:16;;;;;;;4.57;2.30;;;;;;;19.52;60.84;94371.97;5025872;28;20071;-80
2023/08/13 01:01:42;;;;;;;4.03;2.05;;;;;;;19.48;60.82;94371.94;5025538;28;20090;-79
2023/08/13 01:04:07;;;;;;;4.60;3.05;;;;;;;19.44;61.29;94371.84;5025626;28;20029;-79
2023/08/13 01:06:39;;;;;;;6.45;2.33;;;;;;;19.43;61.26;94370.28;5025644;28;20125;-79
2023/08/13 01:09:22;;;;;;;3.90;2.33;;;;;;;19.40;61.51;94362.91;5025288;28;20034;-80
2023/08/13 01:12:03;;;;;;;7.68;3.08;;;;;;;19.31;62.08;94373.13;5024384;28;20212;-79
2023/08/13 01:14:50;;;;;;;5.80;2.63;;;;;;;19.22;62.11;94369.88;5025680;28;20025;-79
2023/08/13 01:17:17;;;;;;;8.23;2.50;;;;;;;19.18;62.86;94369.00;5025535;28;20220;-79
2023/08/13 01:19:43;;;;;;;7.75;2.85;;;;;;;19.12;62.58;94359.63;5025536;28;20029;-80
2023/08/13 01:22:09;;;;;;;4.47;2.53;;;;;;;19.03;62.50;94368.72;5024196;28;20087;-79
2023/08/13 01:24:34;;;;;;;6.40;2.85;;;;;;;19.03;62.67;94365.22;5025410;28;20339;-79
2023/08/13 01:27:14;;;;;;;7.70;3.10;;;;;;;18.98;63.30;94373.63;5025120;28;20033;-79
2023/08/13 01:29:51;;;;;;;3.97;2.45;;;;;;;18.91;63.50;94360.75;5025413;28;20048;-79
2023/08/13 01:32:21;;;;;;;8.65;2.50;;;;;;;18.87;63.58;94357.19;5024972;28;20025;-79
2023/08/13 01:34:49;;;;;;;5.72;2.85;;;;;;;18.85;63.57;94362.16;5025239;28;20021;-79
2023/08/13 01:37:14;;;;;;;7.18;2.85;;;;;;;18.81;63.44;94356.69;5025367;28;20022;-79
2023/08/13 01:39:40;;;;;;;5.93;2.92;;;;;;;18.78;63.77;94367.38;5025237;28;20068;-79
2023/08/13 01:42:06;;;;;;;4.03;2.78;;;;;;;18.71;63.19;94362.59;5024843;28;20045;-79
2023/08/13 01:44:32;;;;;;;6.13;2.67;;;;;;;18.67;63.04;94366.34;5024984;28;20021;-80
2023/08/13 01:46:57;;;;;;;10.93;3.35;;;;;;;18.57;63.44;94373.84;5024711;28;20026;-79
2023/08/13 01:49:22;;;;;;;9.80;3.13;;;;;;;18.55;63.92;94356.44;5024880;28;20308;-79
2023/08/13 01:51:48;;;;;;;5.20;2.03;;;;;;;18.50;64.45;94367.50;5023613;28;20026;-79
2023/08/13 01:54:14;;;;;;;3.97;2.00;;;;;;;18.44;64.68;94361.59;5024982;28;20053;-79
2023/08/13 01:56:39;;;;;;;7.05;2.65;;;;;;;18.39;65.57;94359.16;5024806;28;20208;-79
2023/08/13 01:59:05;;;;;;;6.13;2.90;;;;;;;18.32;65.73;94367.09;5024623;28;20342;-79
2023/08/13 02:01:30;;;;;;;6.50;2.97;;;;;;;18.21;65.80;94362.22;5024584;28;20017;-79
2023/08/13 02:03:55;;;;;;;4.80;2.30;;;;;;;18.14;65.96;94366.69;5023387;28;20021;-79
2023/08/13 02:06:21;;;;;;;7.18;2.88;;;;;;;18.08;66.36;94363.44;5024439;28;20098;-79
2023/08/13 02:08:47;;;;;;;7.57;2.83;;;;;;;18.03;66.75;94361.81;5024687;28;20101;-79
2023/08/13 02:11:12;;;;;;;5.22;2.78;;;;;;;17.94;66.73;94357.69;5024350;28;20362;-79
2023/08/13 02:13:37;;;;;;;6.90;2.97;;;;;;;17.92;66.76;94365.34;5023502;28;20220;-79
2023/08/13 02:16:04;;;;;;;5.35;3.25;;;;;;;17.77;67.59;94358.81;5024386;28;20037;-79
2023/08/13 02:18:30;;;;;;;5.18;2.88;;;;;;;17.77;67.52;94358.81;5024268;28;20034;-79
2023/08/13 02:20:55;;;;;;;11.57;2.70;;;;;;;17.75;67.96;94361.06;5023063;28;20026;-79
2023/08/13 02:23:20;;;;;;;4.82;2.90;;;;;;;17.70;67.82;94364.00;5022909;28;20026;-79
2023/08/13 02:25:46;;;;;;;4.78;2.97;;;;;;;17.59;68.00;94358.34;5024236;28;20097;-79
2023/08/13 02:28:12;;;;;;;5.78;2.63;;;;;;;17.51;68.50;94360.06;5024338;28;20030;-79
2023/08/13 02:30:37;;;;;;;6.78;2.65;;;;;;;17.48;68.81;94358.03;5024116;28;20032;-79
2023/08/13 02:33:03;;;;;;;10.65;3.83;;;;;;;17.46;68.87;94360.28;5023876;28;20052;-79
2023/08/13 02:35:28;;;;;;;8.43;3.25;;;;;;;17.37;69.26;94355.06;5024014;28;20088;-80
2023/08/13 02:37:54;;;;;;;8.18;3.25;;;;;;;17.30;69.54;94351.38;5024048;28;20032;-80
2023/08/13 02:40:19;;;;;;;4.80;3.10;;;;;;;17.26;69.65;94367.47;5023924;28;20092;-80
2023/08/13 02:42:45;;;;;;;4.68;2.65;;;;;;;17.18;68.76;94368.38;5022542;28;20034;-80
2023/08/13 02:45:10;;;;;;;4.50;2.53;;;;;;;17.09;68.49;94357.75;5023957;28;20025;-80
2023/08/13 02:47:35;;;;;;;7.95;3.25;;;;;;;17.02;69.02;94368.31;5022608;28;20030;-80
2023/08/13 02:50:01;;;;;;;7.15;2.75;;;;;;;16.91;69.31;94369.91;5023696;28;20037;-81
2023/08/13 02:52:26;;;;;;;7.53;3.08;;;;;;;16.86;69.25;94373.63;5022109;28;20022;-80
2023/08/13 02:54:52;;;;;;;5.60;2.80;;;;;;;16.82;69.18;94372.75;5023099;28;20018;-80
2023/08/13 02:57:17;;;;;;;4.32;3.03;;;;;;;16.74;69.71;94374.41;5021824;28;20021;-80
2023/08/13 02:59:43;;;;;;;5.72;2.97;;;;;;;16.61;70.38;94370.94;5023640;28;20025;-80
2023/08/13 03:02:08;;;;;;;4.80;3.40;;;;;;;16.63;70.96;94366.00;5022259;28;20080;-80
2023/08/13 03:04:34;;;;;;;5.05;2.90;;;;;;;16.61;70.87;94362.09;5022362;28;20266;-80
2023/08/13 03:06:59;;;;;;;5.95;3.45;;;;;;;16.56;71.08;94368.47;5023303;28;20034;-80
2023/08/13 03:09:25;;;;;;;7.18;3.60;;;;;;;16.59;71.39;94372.41;5022258;28;20307;-80
2023/08/13 03:11:50;;;;;;;16.25;3.28;;;;;;;16.59;71.76;94367.81;5023467;28;20029;-81
2023/08/13 03:14:16;;;;;;;6.93;2.97;;;;;;;16.57;71.57;94380.03;5023214;28;20045;-79
2023/08/13 03:16:41;;;;;;;7.13;3.30;;;;;;;16.56;71.26;94381.16;5023563;28;20022;-80
2023/08/13 03:19:07;;;;;;;5.13;3.65;;;;;;;16.49;71.73;94378.25;5023473;28;20132;-80
2023/08/13 03:21:32;;;;;;;6.97;3.33;;;;;;;16.51;71.56;94382.19;5023249;28;20205;-80
2023/08/13 03:23:58;;;;;;;6.00;2.92;;;;;;;16.52;71.66;94372.19;5023136;28;20025;-80
2023/08/13 03:26:23;;;;;;;5.88;3.38;;;;;;;16.44;71.89;94368.50;5023121;28;20029;-80
2023/08/13 03:28:49;;;;;;;7.47;3.35;;;;;;;16.46;71.87;94385.06;5023226;28;20025;-80
2023/08/13 03:31:14;;;;;;;6.95;3.28;;;;;;;16.41;71.83;94378.03;5023290;28;20025;-80
2023/08/13 03:33:39;;;;;;;7.38;3.35;;;;;;;16.39;71.95;94387.56;5023242;28;20032;-80
2023/08/13 03:36:05;;;;;;;6.50;3.17;;;;;;;16.34;72.63;94387.78;5023026;28;20197;-80
2023/08/13 03:38:30;;;;;;;7.50;3.38;;;;;;;16.32;72.47;94379.25;5023049;28;20209;-80
2023/08/13 03:40:56;;;;;;;4.78;3.20;;;;;;;16.20;72.62;94380.84;5021685;28;20030;-80
2023/08/13 03:43:22;;;;;;;8.90;3.45;;;;;;;16.21;72.49;94378.91;5023056;28;20049;-80
2023/08/13 03:45:47;;;;;;;6.05;2.92;;;;;;;16.28;72.34;94372.97;5022872;28;20030;-80
2023/08/13 03:48:13;;;;;;;8.50;3.08;;;;;;;16.18;72.49;94375.00;5023261;28;20097;-80
2023/08/13 03:50:42;;;;;;;5.15;3.33;;;;;;;16.20;72.90;94378.16;5022972;28;20338;-81
2023/08/13 03:53:09;;;;;;;9.23;3.97;;;;;;;16.28;73.07;94384.50;5022833;28;20034;-81
2023/08/13 03:55:35;;;;;;;7.85;3.45;;;;;;;16.33;71.94;94391.59;5021698;28;20045;-80
2023/08/13 03:58:02;;;;;;;6.85;3.38;;;;;;;16.35;71.49;94383.97;5022849;28;20034;-80
2023/08/13 04:00:28;;;;;;;7.00;3.40;;;;;;;16.33;71.81;94383.53;5022839;28;20025;-80
2023/08/13 04:02:53;;;;;;;4.38;2.92;;;;;;;16.38;71.73;94384.06;5022701;28;20339;-81
2023/08/13 04:05:18;;;;;;;8.02;3.95;;;;;;;16.41;71.77;94388.00;5021634;28;20316;-80
2023/08/13 04:07:44;;;;;;;5.00;3.15;;;;;;;16.51;71.74;94386.78;5022912;28;20050;-80
2023/08/13 04:10:09;;;;;;;3.40;2.67;;;;;;;16.57;71.28;94388.91;5022736;28;20121;-80
2023/08/13 04:12:35;;;;;;;5.60;2.85;;;;;;;16.55;71.09;94383.06;5022743;28;20026;-80
2023/08/13 04:15:02;;;;;;;5.10;2.70;;;;;;;16.52;71.23;94402.56;5022524;28;20029;-80
2023/08/13 04:17:27;;;;;;;4.93;3.00;;;;;;;16.51;70.94;94402.91;5022704;28;20033;-80
2023/08/13 04:19:52;;;;;;;4.82;2.92;;;;;;;16.56;70.72;94395.38;5022807;28;20097;-80
2023/08/13 04:22:18;;;;;;;4.72;3.25;;;;;;;16.58;70.85;94398.53;5022567;28;20022;-80
2023/08/13 04:24:50;;;;;;;4.50;2.78;;;;;;;16.61;70.78;94408.63;5022672;28;20021;-80
2023/08/13 04:27:16;;;;;;;5.25;3.35;;;;;;;16.72;70.07;94405.47;5022486;28;20036;-80
2023/08/13 04:29:42;;;;;;;7.40;3.03;;;;;;;16.79;70.04;94409.19;5021533;28;20227;-81
2023/08/13 04:32:07;;;;;;;5.93;3.38;;;;;;;16.83;69.89;94404.72;5022450;28;20091;-81
2023/08/13 04:34:33;;;;;;;7.45;2.85;;;;;;;16.91;69.40;94411.06;5022485;28;20025;-80
2023/08/13 04:36:58;;;;;;;6.47;3.40;;;;;;;16.87;69.60;94410.19;5025011;28;20018;-80
2023/08/13 04:39:24;;;;;;;5.28;3.50;;;;;;;16.86;69.31;94408.63;5026177;28;20029;-80
2023/08/13 04:41:49;;;;;;;8.02;4.00;;;;;;;16.94;69.20;94410.41;5026149;28;20243;-80
2023/08/13 04:44:15;;;;;;;4.85;2.72;;;;;;;17.00;68.78;94419.81;5026005;28;20307;-80
2023/08/13 04:46:40;;;;;;;6.50;3.05;;;;;;;17.10;68.63;94415.09;5025014;28;20072;-80
2023/08/13 04:49:05;;;;;;;7.25;3.33;;;;;;;17.10;69.41;94413.19;5026046;28;20065;-80
2023/08/13 04:51:31;;;;;;;6.72;3.05;;;;;;;17.15;69.01;94420.22;5026065;28;20049;-80
2023/08/13 04:53:56;;;;;;;9.70;3.88;;;;;;;17.24;68.45;94415.50;5024678;28;20022;-80
2023/08/13 04:56:22;;;;;;;6.80;3.45;;;;;;;17.30;68.08;94424.91;5024723;28;20089;-80
2023/08/13 04:58:47;;;;;;;10.00;3.90;;;;;;;17.33;68.15;94424.22;5025796;28;20030;-80
2023/08/13 05:01:13;;;;;;;11.20;3.83;;;;;;;17.41;67.82;94422.53;5026040;28;20018;-81
2023/08/13 05:03:39;;;;;;;7.68;3.67;;;;;;;17.42;67.99;94430.28;5025800;28;20045;-80
2023/08/13 05:06:05;;;;;;;5.20;3.15;;;;;;;17.48;68.35;94421.94;5024460;28;20328;-80
2023/08/13 05:08:30;;;;;;;8.32;3.63;;;;;;;17.52;68.03;94426.28;5025537;28;20034;-80
2023/08/13 05:10:56;;;;;;;7.93;3.38;;;;;;;17.53;68.34;94419.78;5025529;28;20042;-81
2023/08/13 05:13:21;;;;;;;8.88;3.92;;;;;;;17.60;68.04;94429.97;5025584;28;20029;-81
2023/08/13 05:15:47;;;;;;;6.55;3.13;;;;;;;17.67;67.72;94429.38;5024287;28;20231;-80
2023/08/13 05:18:13;;;;;;;7.10;3.25;;;;;;;17.72;67.90;94427.22;5025663;28;20026;-81
2023/08/13 05:20:38;;;;;;;6.60;3.05;;;;;;;17.77;67.54;94432.38;5025343;28;20022;-80
2023/08/13 05:23:03;;;;;;;6.72;4.03;;;;;;;17.81;67.86;94440.56;5025387;28;20673;-80
2023/08/13 05:25:29;;;;;;;7.68;3.90;;;;;;;17.84;68.03;94435.28;5025252;28;20029;-81
2023/08/13 05:27:55;;;;;;;11.18;3.92;;;;;;;17.95;67.17;94432.06;5025036;28;20045;-81
2023/08/13 05:30:20;;;;;;;11.07;3.45;;;;;;;18.02;66.86;94440.38;5024108;28;20021;-80
2023/08/13 05:32:48;;;;;;;5.55;3.65;;;;;;;18.09;67.02;94442.44;5025303;28;20022;-80
2023/08/13 05:35:14;;;;;;;5.70;3.38;;;;;;;18.14;66.35;94426.78;5025395;28;20308;-80
2023/08/13 05:37:39;;;;;;;7.63;3.63;;;;;;;18.21;65.88;94436.97;5024978;28;20018;-80
2023/08/13 05:40:08;;;;;;;5.38;2.88;;;;;;;18.28;65.59;94430.97;5024011;28;20037;-80
2023/08/13 05:42:33;;;;;;;5.82;3.30;;;;;;;18.33;65.05;94433.41;5023836;28;20025;-81
2023/08/13 05:44:58;;;;;;;6.72;3.60;;;;;;;18.36;65.12;94438.09;5024945;28;20022;-80
2023/08/13 05:47:24;;;;;;;4.68;3.28;;;;;;;18.42;65.34;94439.44;5023592;28;20120;-80
2023/08/13 05:49:49;;;;;;;6.40;3.35;;;;;;;18.48;65.11;94434.53;5024828;28;20033;-80
2023/08/13 05:52:17;;;;;;;11.65;3.95;;;;;;;18.56;64.50;94439.78;5023589;28;20029;-80
2023/08/13 05:54:42;;;;;;;5.88;3.35;;;;;;;18.63;64.27;94448.03;5024818;28;20025;-80
2023/08/13 05:57:08;;;;;;;8.43;3.45;;;;;;;18.66;64.27;94441.16;5024650;28;20021;-80
2023/08/13 05:59:33;;;;;;;10.20;3.72;;;;;;;18.70;64.25;94441.25;5023526;28;20097;-79
2023/08/13 06:01:58;;;;;;;7.47;3.80;;;;;;;18.82;63.16;94441.94;5024929;28;20068;-79
2023/08/13 06:04:24;;;;;;;20.08;3.75;;;;;;;18.88;63.18;94442.47;5024549;28;20030;-79
2023/08/13 06:06:49;;;;;;;9.35;3.65;;;;;;;18.89;62.39;94446.75;5024473;28;20132;-79
2023/08/13 06:09:15;;;;;;;8.88;3.08;;;;;;;18.96;62.36;94449.59;5024319;28;20295;-79
2023/08/13 06:11:40;;;;;;;8.30;3.95;;;;;;;19.16;62.50;94438.84;5024527;28;20271;-79
2023/08/13 06:14:06;;;;;;;7.85;3.67;;;;;;;19.31;63.18;94446.09;5023258;28;20025;-79
2023/08/13 06:16:31;;;;;;;7.22;3.20;;;;;;;19.45;61.94;94445.63;5024332;28;20244;-79
2023/08/13 06:18:57;;;;;;;15.20;3.55;;;;;;;19.50;60.91;94439.94;5024157;28;20036;-79
2023/08/13 06:21:22;;;;;;;5.28;3.58;;;;;;;19.51;60.92;94440.72;5024242;28;20067;-79
2023/08/13 06:23:49;;;;;;;5.63;3.42;;;;;;;19.61;59.87;94445.56;5024261;28;20056;-79
2023/08/13 06:26:15;;;;;;;8.23;3.60;;;;;;;19.66;59.45;94437.13;5024173;28;20272;-79
2023/08/13 06:28:40;;;;;;;6.45;3.80;;;;;;;19.72;59.39;94452.00;5023079;28;20230;-79
2023/08/13 06:31:06;;;;;;;7.80;3.80;;;;;;;19.83;59.28;94446.78;5024142;28;20316;-79
2023/08/13 06:33:31;;;;;;;6.45;3.40;;;;;;;19.89;58.93;94444.59;5022874;28;20029;-79
2023/08/13 06:35:57;;;;;;;7.03;3.28;;;;;;;19.96;59.29;94450.09;5022872;28;20083;-79
2023/08/13 06:38:24;;;;;;;8.38;3.92;;;;;;;20.09;59.22;94453.44;5023876;28;20116;-79
2023/08/13 06:40:49;;;;;;;8.10;3.65;;;;;;;20.18;58.01;94446.66;5023980;28;20330;-79
2023/08/13 06:43:15;;;;;;;15.48;4.22;;;;;;;20.23;57.72;94449.06;5022889;28;20029;-78
2023/08/13 06:45:40;;;;;;;10.70;4.25;;;;;;;20.38;56.99;94450.09;5024049;28;20026;-80
2023/08/13 06:48:06;;;;;;;10.05;4.22;;;;;;;20.47;56.41;94452.56;5023593;28;20103;-79
2023/08/13 06:50:35;;;;;;;9.88;3.88;;;;;;;20.50;56.21;94449.13;5023793;28;20101;-79
2023/08/13 06:53:00;;;;;;;12.02;6.10;;;;;;;20.56;56.34;94450.41;5023850;28;20021;-79
2023/08/13 06:55:25;;;;;;;6.47;3.92;;;;;;;20.67;55.94;94444.41;5023667;28;20094;-79
2023/08/13 06:57:51;;;;;;;9.98;4.22;;;;;;;20.74;55.13;94436.38;5023457;28;20029;-79
2023/08/13 07:00:19;;;;;;;5.57;3.85;;;;;;;20.83;54.78;94447.75;5023541;28;20026;-78
2023/08/13 07:02:45;;;;;;;12.95;4.18;;;;;;;20.80;54.46;94435.72;5022374;28;20037;-79
2023/08/13 07:05:12;;;;;;;7.97;3.97;;;;;;;20.91;54.87;94443.22;5023596;28;20205;-80
2023/08/13 07:07:38;;;;;;;11.85;3.67;;;;;;;21.07;54.78;94440.38;5023332;28;20324;-80
2023/08/13 07:10:04;;;;;;;8.23;3.90;;;;;;;21.21;54.39;94446.75;5023254;28;20053;-80
2023/08/13 07:12:30;;;;;;;11.27;3.78;;;;;;;21.30;53.17;94432.91;5022185;28;20026;-80
2023/08/13 07:14:55;;;;;;;10.65;4.38;;;;;;;21.33;52.15;94429.50;5023483;28;20025;-80
2023/08/13 07:17:21;;;;;;;8.77;3.22;;;;;;;21.32;51.96;94425.19;5022125;28;20043;-80
2023/08/13 07:19:48;;;;;;;8.20;3.47;;;;;;;21.30;52.34;94432.91;5023320;28;20026;-80
2023/08/13 07:22:13;;;;;;;9.60;3.55;;;;;;;21.44;51.84;94432.38;5023551;28;20281;-80
2023/08/13 07:24:38;;;;;;;5.72;3.55;;;;;;;21.48;51.11;94425.06;5023267;28;20026;-80
2023/08/13 07:27:04;;;;;;;8.35;3.05;;;;;;;21.47;51.06;94428.13;5023065;28;20034;-80
2023/08/13 07:29:29;;;;;;;12.60;3.28;;;;;;;21.65;50.65;94431.84;5023126;28;20045;-80
2023/08/13 07:31:55;;;;;;;5.65;2.63;;;;;;;21.66;50.05;94425.28;5023186;28;20252;-80
2023/08/13 07:34:20;;;;;;;6.63;3.30;;;;;;;21.70;50.35;94417.97;5023033;28;20025;-81
2023/08/13 07:36:46;;;;;;;6.22;3.38;;;;;;;21.90;49.81;94428.63;5023102;28;20018;-80
2023/08/13 07:39:12;;;;;;;10.35;3.45;;;;;;;21.99;49.08;94431.84;5023109;28;20029;-81
2023/08/13 07:41:37;;;;;;;7.45;3.65;;;;;;;22.16;49.42;94422.31;5023142;28;20049;-80
2023/08/13 07:44:04;;;;;;;9.25;3.85;;;;;;;22.34;47.67;94427.94;5023004;28;20216;-80
2023/08/13 07:46:30;;;;;;;6.40;2.70;;;;;;;22.47;47.96;94426.50;5022888;28;20029;-80
2023/08/13 07:48:55;;;;;;;8.18;2.65;;;;;;;22.61;47.16;94426.63;5021492;28;20192;-80
2023/08/13 07:51:21;;;;;;;8.57;2.58;;;;;;;22.75;46.67;94420.50;5022881;28;20026;-80
2023/08/13 07:53:46;;;;;;;8.43;3.00;;;;;;;22.89;46.67;94417.09;5022923;28;20101;-81
2023/08/13 07:56:12;;;;;;;11.35;3.13;;;;;;;22.99;46.49;94419.13;5023014;28;20013;-81
2023/08/13 07:58:38;;;;;;;4.38;2.67;;;;;;;23.08;45.43;94415.31;5022753;28;20030;-80
2023/08/13 08:01:03;;;;;;;12.07;2.70;;;;;;;23.19;45.52;94416.16;5022816;28;20036;-80
2023/08/13 08:03:29;;;;;;;6.45;2.75;;;;;;;23.27;45.17;94425.91;5021593;28;20274;-80
2023/08/13 08:05:54;;;;;;;5.30;2.60;;;;;;;23.38;44.30;94418.59;5022774;28;20034;-80
2023/08/13 08:08:20;;;;;;;7.05;2.88;;;;;;;23.33;43.75;94427.13;5022640;28;20022;-80
2023/08/13 08:10:45;;;;;;;8.70;2.83;;;;;;;23.44;43.69;94413.56;5023098;28;20050;-80
2023/08/13 08:13:11;;;;;;;8.25;2.80;;;;;;;23.54;43.96;94410.13;5026863;28;20017;-81
2023/08/13 08:15:36;;;;;;;5.30;3.15;;;;;;;23.63;42.78;94412.50;5026570;28;20018;-80
2023/08/13 08:18:02;;;;;;;3.97;2.50;;;;;;;23.64;43.09;94403.16;5026529;28;20014;-80
2023/08/13 08:20:28;;;;;;;5.82;3.45;;;;;;;23.50;42.04;94413.97;5026380;28;20169;-80
2023/08/13 08:22:53;;;;;;;5.25;2.45;;;;;;;23.55;42.94;94400.00;5026548;28;20014;-80
2023/08/13 08:25:19;;;;;;;7.13;2.58;;;;;;;23.40;42.84;94402.66;5026350;28;20045;-80
2023/08/13 08:27:45;;;;;;;9.18;2.88;;;;;;;23.62;42.43;94397.31;5026302;28;20097;-80
2023/08/13 08:30:11;;;;;;;5.82;2.67;;;;;;;23.71;42.17;94389.59;5025204;28;20029;-80
2023/08/13 08:32:36;;;;;;;5.97;2.72;;;;;;;23.83;41.92;94389.25;5026189;28;20057;-80
2023/08/13 08:35:03;;;;;;;5.38;2.50;;;;;;;23.93;43.00;94386.94;5026414;28;20030;-80
2023/08/13 08:37:29;;;;;;;6.00;2.70;;;;;;;24.04;41.90;94379.59;5026261;28;20323;-80
2023/08/13 08:39:55;;;;;;;4.90;2.20;;;;;;;23.99;40.77;94385.41;5026117;28;20021;-80
2023/08/13 08:42:20;;;;;;;9.02;3.50;;;;;;;23.98;41.33;94379.19;5026147;28;20064;-80
2023/08/13 08:44:46;;;;;;;5.32;2.10;;;;;;;24.09;41.63;94390.09;5026143;28;20029;-80
2023/08/13 08:47:13;;;;;;;6.70;2.25;;;;;;;24.23;41.07;94379.22;5024872;28;20049;-80
2023/08/13 08:49:39;;;;;;;3.58;2.30;;;;;;;24.31;39.78;94374.56;5025969;28;20021;-80
2023/08/13 08:52:06;;;;;;;3.30;2.15;;;;;;;24.42;39.95;94378.06;5026022;28;20080;-80
2023/08/13 08:54:32;;;;;;;4.88;2.22;;;;;;;24.50;39.84;94380.81;5026010;28;20031;-80
2023/08/13 08:56:58;;;;;;;3.45;2.17;;;;;;;24.54;39.18;94376.91;5024808;28;20018;-80
2023/08/13 08:59:23;;;;;;;3.97;2.47;;;;;;;24.66;38.65;94380.41;5025664;28;20021;-80
2023/08/13 09:01:49;;;;;;;4.90;2.50;;;;;;;24.52;38.95;94368.34;5025672;28;20021;-80
2023/08/13 09:04:14;;;;;;;6.88;2.60;;;;;;;24.54;39.13;94371.47;5024573;28;20212;-80
2023/08/13 09:07:00;;;;;;;4.70;2.80;;;;;;;24.46;38.59;94358.97;5025917;28;20224;-80
2023/08/13 09:09:27;;;;;;;3.50;2.10;;;;;;;24.57;39.22;94367.97;5025383;28;20034;-80
2023/08/13 09:11:53;;;;;;;5.72;2.15;;;;;;;24.77;37.74;94370.28;5025667;28;20026;-80
2023/08/13 09:14:20;;;;;;;7.28;2.30;;;;;;;24.84;37.72;94359.38;5025353;28;20037;-80
2023/08/13 09:16:50;;;;;;;3.72;2.00;;;;;;;24.82;37.67;94359.75;5025427;28;20029;-80
2023/08/13 09:19:17;;;;;;;4.43;2.55;;;;;;;24.93;38.13;94354.28;5025500;28;20371;-80
2023/08/13 09:22:00;;;;;;;5.57;2.30;;;;;;;25.09;38.14;94351.13;5025515;28;20025;-80
2023/08/13 09:24:37;;;;;;;3.13;1.83;;;;;;;25.27;37.42;94351.09;5025236;28;20032;-80
2023/08/13 09:27:04;;;;;;;6.57;2.13;;;;;;;25.40;36.59;94344.06;5025291;28;20038;-80
2023/08/13 09:29:30;;;;;;;4.10;2.40;;;;;;;25.42;36.24;94341.69;5025262;28;20030;-80
2023/08/13 09:31:58;;;;;;;3.78;1.98;;;;;;;25.48;36.10;94349.47;5023868;28;20087;-80
2023/08/13 09:34:25;;;;;;;10.73;2.85;;;;;;;25.63;35.80;94343.53;5025305;28;20026;-80
2023/08/13 09:36:54;;;;;;;4.75;2.05;;;;;;;25.77;35.62;94337.22;5024991;28;20085;-80
2023/08/13 09:39:23;;;;;;;5.90;2.50;;;;;;;25.89;35.90;94346.13;5024885;28;20017;-80
2023/08/13 09:41:50;;;;;;;9.60;2.90;;;;;;;25.97;35.88;94345.72;5024976;28;20029;-80
2023/08/13 09:44:18;;;;;;;3.33;2.15;;;;;;;26.04;34.82;94335.94;5025011;28;20325;-80
2023/08/13 09:46:51;;;;;;;4.10;2.50;;;;;;;26.15;35.31;94345.59;5025020;28;20028;-80
2023/08/13 09:49:17;;;;;;;4.45;2.20;;;;;;;26.32;35.38;94351.34;5024757;28;20021;-80
2023/08/13 09:51:46;;;;;;;5.13;2.47;;;;;;;26.40;35.05;94352.84;5023738;28;20213;-80
2023/08/13 09:54:22;;;;;;;6.80;2.65;;;;;;;26.61;35.85;94349.94;5024899;28;20050;-80
2023/08/13 09:56:55;;;;;;;6.65;3.05;;;;;;;26.86;35.48;94351.66;5023589;28;20336;-80
2023/08/13 09:59:21;;;;;;;6.97;2.45;;;;;;;26.73;34.65;94347.91;5024580;28;20060;-81
2023/08/13 10:01:47;;;;;;;11.52;2.50;;;;;;;26.68;34.71;94345.59;5024672;28;20018;-80
2023/08/13 10:04:12;;;;;;;6.10;2.13;;;;;;;26.64;34.90;94344.84;5023526;28;20220;-80
2023/08/13 10:06:38;;;;;;;5.82;2.40;;;;;;;26.68;35.29;94337.41;5023319;28;20028;-80
2023/08/13 10:09:04;;;;;;;5.93;2.58;;;;;;;26.70;35.55;94340.50;5024284;28;20458;-81
2023/08/13 10:11:30;;;;;;;4.57;2.28;;;;;;;26.67;35.27;94335.84;5023268;28;20045;-80
2023/08/13 10:13:55;;;;;;;5.28;2.42;;;;;;;26.56;35.59;94344.91;5023361;28;20053;-81
2023/08/13 10:16:22;;;;;;;3.95;2.28;;;;;;;26.77;35.22;94343.19;5024305;28;20025;-81
2023/08/13 10:18:47;;;;;;;5.60;2.83;;;;;;;26.82;35.36;94340.00;5024079;28;20035;-81
2023/08/13 10:21:14;;;;;;;8.82;2.90;;;;;;;27.06;35.14;94346.41;5024518;28;20042;-81
2023/08/13 10:23:40;;;;;;;6.53;2.45;;;;;;;27.19;34.54;94343.91;5024328;28;20022;-81
2023/08/13 10:26:07;;;;;;;8.35;2.38;;;;;;;27.20;33.72;94345.47;5024037;28;20018;-80
2023/08/13 10:28:33;;;;;;;10.38;2.65;;;;;;;27.30;34.63;94341.88;5024121;28;20022;-81
2023/08/13 10:31:25;;;;;;;3.90;2.33;;;;;;;27.29;34.13;94345.78;5024059;28;20022;-81
2023/08/13 10:34:37;;;;;;;6.80;2.30;;;;;;;26.94;33.76;94335.97;5023370;28;20025;-81
2023/08/13 10:37:02;;;;;;;9.30;2.63;;;;;;;26.92;33.46;94328.16;5023643;28;20343;-80
2023/08/13 10:39:38;;;;;;;4.30;2.50;;;;;;;26.81;34.54;94335.72;5022670;28;20041;-81
2023/08/13 10:42:26;;;;;;;5.82;2.40;;;;;;;26.98;33.31;94329.28;5024047;28;20041;-80
2023/08/13 10:45:12;;;;;;;7.03;2.80;;;;;;;27.20;34.84;94324.34;5023313;28;20121;-80
2023/08/13 10:47:53;;;;;;;9.25;2.75;;;;;;;27.44;34.86;94326.44;5023363;28;20041;-80
2023/08/13 10:50:39;;;;;;;5.18;2.38;;;;;;;27.69;32.74;94335.13;5023826;28;20224;-81
2023/08/13 10:53:21;;;;;;;4.10;2.33;;;;;;;27.67;33.35;94329.28;5023783;28;20037;-81
2023/08/13 10:55:50;;;;;;;5.03;2.80;;;;;;;27.74;33.61;94336.63;5023779;28;20048;-81
2023/08/13 10:58:40;;;;;;;3.97;2.60;;;;;;;27.59;33.88;94331.31;5022267;28;20025;-81
2023/08/13 11:01:19;;;;;;;3.53;2.20;;;;;;;27.72;33.85;94323.34;5023709;28;20030;-81
2023/08/13 11:03:47;;;;;;;7.72;2.75;;;;;;;27.96;33.55;94326.16;5023600;28;20220;-80
2023/08/13 11:06:14;;;;;;;5.78;2.30;;;;;;;27.93;34.13;94329.75;5023485;28;20048;-81
2023/08/13 11:08:43;;;;;;;5.90;2.60;;;;;;;28.04;33.18;94327.63;5022393;28;20029;-80
2023/08/13 11:11:11;;;;;;;3.80;2.47;;;;;;;28.30;33.02;94319.78;5022145;28;20327;-80
2023/08/13 11:13:37;;;;;;;6.85;3.10;;;;;;;28.38;32.78;94323.97;5022303;28;20030;-81
2023/08/13 11:16:02;;;;;;;6.13;3.38;;;;;;;28.37;33.09;94322.41;5022002;28;20040;-81
2023/08/13 11:18:28;;;;;;;5.22;2.53;;;;;;;28.30;32.59;94320.56;5023254;28;20053;-81
2023/08/13 11:20:54;;;;;;;7.43;2.72;;;;;;;28.01;33.15;94320.22;5023331;28;20029;-81
2023/08/13 11:23:21;;;;;;;4.82;2.47;;;;;;;28.15;33.44;94311.81;5023113;28;20323;-81
2023/08/13 11:25:48;;;;;;;6.88;2.80;;;;;;;28.01;33.04;94314.75;5023135;28;20068;-81
2023/08/13 11:28:24;;;;;;;9.00;3.30;;;;;;;28.13;33.28;94316.13;5023385;28;20053;-80
2023/08/13 11:30:54;;;;;;;6.45;2.55;;;;;;;28.27;31.86;94317.88;5021961;28;20029;-80